Terminal Aerodrome Forecast
Issued by NWS

Home | Current Version | Previous Version | Text Only | Print | Product List | Glossary On
Versions: 1 2 3 4 5 6 7 8 9 10 11 12 13 14 15 16 17 18 19 20 21
000
FTUS42 KFFC 022300
TAFFTY
TAF
KFTY 022320Z 0300/0324 27005KT P6SM BKN040
     FM030100 00000KT P6SM BKN150
     FM031500 33003KT P6SM SCT035
     FM031900 26005KT P6SM BKN045 PROB30 0319/0323 4SM -TSRA
      BKN040CB=

USA.gov is the U.S. government's official web portal to all federal, state and local government web resources and services.